createdAt,value
2019-05-13T00:00:45.158Z,13.99
2019-05-13T00:03:16.697Z,13.98
2019-05-13T00:05:48.191Z,14.03
2019-05-13T00:08:21.660Z,14.01
2019-05-13T00:10:53.995Z,13.89
2019-05-13T00:13:25.048Z,13.96
2019-05-13T00:15:55.826Z,13.97
2019-05-13T00:18:26.931Z,13.85
2019-05-13T00:20:58.264Z,13.88
2019-05-13T00:23:29.636Z,13.86
2019-05-13T00:26:00.989Z,13.86
2019-05-13T00:28:34.298Z,13.89
2019-05-13T00:31:05.362Z,13.87
2019-05-13T00:33:36.836Z,13.85
2019-05-13T00:36:08.241Z,13.85
2019-05-13T00:38:39.690Z,13.86
2019-05-13T00:41:10.994Z,13.86
2019-05-13T00:43:44.424Z,13.86
2019-05-13T00:46:15.484Z,13.88
2019-05-13T00:48:46.988Z,13.93
2019-05-13T00:51:18.358Z,13.96
2019-05-13T00:53:49.693Z,13.99
2019-05-13T00:56:21.019Z,14.00
2019-05-13T00:58:54.138Z,14.00
2019-05-13T01:01:25.619Z,14.00
2019-05-13T01:03:57.030Z,14.06
2019-05-13T01:06:28.398Z,14.05
2019-05-13T01:08:59.801Z,14.05
2019-05-13T01:11:31.153Z,14.07
2019-05-13T01:14:04.243Z,14.06
2019-05-13T01:16:35.620Z,14.08
2019-05-13T01:19:07.033Z,14.12
2019-05-13T01:21:38.397Z,14.12
2019-05-13T01:24:09.741Z,14.15
2019-05-13T01:26:41.079Z,14.17
2019-05-13T01:29:13.504Z,14.14
2019-05-13T01:31:45.158Z,14.14
2019-05-13T01:34:16.514Z,14.15
2019-05-13T01:36:47.893Z,14.15
2019-05-13T01:39:19.358Z,14.16
2019-05-13T01:41:50.736Z,14.16
2019-05-13T01:44:24.219Z,14.19
2019-05-13T01:46:55.284Z,14.18
2019-05-13T01:49:26.701Z,14.19
2019-05-13T01:51:58.034Z,14.19
2019-05-13T01:54:29.450Z,14.20
2019-05-13T01:57:00.847Z,14.21
2019-05-13T01:59:34.667Z,14.20
2019-05-13T02:02:06.054Z,14.20
2019-05-13T02:04:37.491Z,14.22
2019-05-13T02:07:08.792Z,14.22
2019-05-13T02:09:40.318Z,14.23
2019-05-13T02:12:13.430Z,14.21
2019-05-13T02:14:45.189Z,14.22
2019-05-13T02:17:16.561Z,14.22
2019-05-13T02:19:47.970Z,14.22
2019-05-13T02:22:19.449Z,14.23
2019-05-13T02:24:50.875Z,14.24
2019-05-13T02:27:21.687Z,14.24
2019-05-13T02:29:54.007Z,14.17
2019-05-13T02:32:25.633Z,14.24
2019-05-13T02:34:57.055Z,14.24
2019-05-13T02:37:29.559Z,14.26
2019-05-13T02:40:03.624Z,14.27
2019-05-13T02:42:34.559Z,14.28
2019-05-13T02:45:06.178Z,14.31
2019-05-13T02:47:37.612Z,14.35
2019-05-13T02:50:12.240Z,14.37
2019-05-13T02:52:44.399Z,14.37
2019-05-13T02:55:15.347Z,14.41
2019-05-13T02:57:46.742Z,14.45
2019-05-13T03:00:18.232Z,14.48
2019-05-13T03:02:52.238Z,14.52
2019-05-13T03:05:21.911Z,14.47
2019-05-13T03:07:53.329Z,14.47
2019-05-13T03:10:24.099Z,14.58
2019-05-13T03:12:55.245Z,14.60
2019-05-13T03:15:27.797Z,14.69
2019-05-13T03:18:05.767Z,14.70
2019-05-13T03:20:37.207Z,14.77
2019-05-13T03:23:08.577Z,14.84
2019-05-13T03:25:42.896Z,14.87
2019-05-13T03:28:13.584Z,14.89
2019-05-13T03:30:46.318Z,14.94
2019-05-13T03:33:20.073Z,14.94
2019-05-13T03:35:55.799Z,14.95
2019-05-13T03:38:25.443Z,14.99
2019-05-13T03:40:57.145Z,15.05
2019-05-13T03:43:27.773Z,15.05
2019-05-13T03:45:58.902Z,14.95
2019-05-13T03:48:33.266Z,15.00
2019-05-13T03:51:03.431Z,15.02
2019-05-13T03:53:34.236Z,15.01
2019-05-13T03:56:05.336Z,14.99
2019-05-13T03:58:36.645Z,15.03
2019-05-13T04:01:07.987Z,15.10
2019-05-13T04:03:39.348Z,15.18
2019-05-13T04:06:13.555Z,15.25
2019-05-13T04:08:44.203Z,15.34
2019-05-13T04:11:15.974Z,15.40
2019-05-13T04:13:47.766Z,15.50
2019-05-13T04:16:19.025Z,15.55
2019-05-13T04:18:53.711Z,15.65
2019-05-13T04:21:23.693Z,15.75
2019-05-13T04:23:54.466Z,15.84
2019-05-13T04:26:25.594Z,15.81
2019-05-13T04:28:56.479Z,15.86
2019-05-13T04:31:27.658Z,15.82
2019-05-13T04:33:58.438Z,15.92
2019-05-13T04:36:32.004Z,15.89
2019-05-13T04:39:05.282Z,16.00
2019-05-13T04:41:36.772Z,16.07
2019-05-13T04:44:08.093Z,16.13
2019-05-13T04:46:43.090Z,16.17
2019-05-13T04:49:12.760Z,16.16
2019-05-13T04:51:43.661Z,16.21
2019-05-13T04:54:14.798Z,16.17
2019-05-13T04:56:46.472Z,16.20
2019-05-13T04:59:17.859Z,16.22
2019-05-13T05:02:37.429Z,16.24
2019-05-13T05:05:03.353Z,16.27
2019-05-13T05:08:03.120Z,16.34
2019-05-13T05:11:05.971Z,16.38
2019-05-13T05:13:43.035Z,16.41
2019-05-13T05:16:46.844Z,16.38
2019-05-13T05:19:44.980Z,16.38
2019-05-13T05:22:32.596Z,16.41
2019-05-13T05:25:12.884Z,16.43
2019-05-13T05:27:47.443Z,16.45
2019-05-13T05:30:38.454Z,16.48
2019-05-13T05:33:31.919Z,16.55
2019-05-13T05:36:21.934Z,16.60
2019-05-13T05:39:01.722Z,16.71
2019-05-13T05:41:34.547Z,16.86
2019-05-13T05:44:05.927Z,17.03
2019-05-13T05:46:42.790Z,17.15
2019-05-13T05:49:13.324Z,17.29
2019-05-13T05:51:44.677Z,17.43
2019-05-13T05:54:16.096Z,17.53
2019-05-13T05:56:47.468Z,17.64
2019-05-13T05:59:18.778Z,17.67
2019-05-13T06:01:52.537Z,17.80
2019-05-13T06:04:24.772Z,17.86
2019-05-13T06:06:56.056Z,17.95
2019-05-13T06:09:27.415Z,18.03
2019-05-13T06:11:58.798Z,18.11
2019-05-13T06:14:29.535Z,18.20
2019-05-13T06:17:02.630Z,18.19
2019-05-13T06:19:33.646Z,18.29
2019-05-13T06:22:05.002Z,18.35
2019-05-13T06:24:37.435Z,18.43
2019-05-13T06:27:08.773Z,18.50
2019-05-13T06:29:42.297Z,18.61
2019-05-13T06:32:21.552Z,18.81
2019-05-13T06:34:46.434Z,19.04
2019-05-13T06:37:17.749Z,19.18
2019-05-13T06:39:51.224Z,19.29
2019-05-13T06:42:22.411Z,19.38
2019-05-13T06:44:53.088Z,19.52
2019-05-13T06:47:24.198Z,19.69
2019-05-13T06:49:55.541Z,19.77
2019-05-13T06:52:26.989Z,19.80
2019-05-13T06:54:57.779Z,19.82
2019-05-13T06:57:28.996Z,19.79
2019-05-13T07:00:01.703Z,19.85
2019-05-13T07:02:32.697Z,19.84
2019-05-13T07:05:03.886Z,19.92
2019-05-13T07:07:35.139Z,20.02
2019-05-13T07:10:06.700Z,20.11
2019-05-13T07:12:37.762Z,20.15
2019-05-13T07:15:11.587Z,20.13
2019-05-13T07:17:43.318Z,20.11
2019-05-13T07:20:14.043Z,20.11
2019-05-13T07:22:45.185Z,20.05
2019-05-13T07:25:16.041Z,20.12
2019-05-13T07:27:47.180Z,20.10
2019-05-13T07:30:21.895Z,20.26
2019-05-13T07:32:53.305Z,20.35
2019-05-13T07:35:24.175Z,20.50
2019-05-13T07:37:55.355Z,20.46
2019-05-13T07:40:26.101Z,20.38
2019-05-13T07:42:57.328Z,20.48
2019-05-13T07:45:31.621Z,20.59
2019-05-13T07:48:02.847Z,20.66
2019-05-13T07:50:33.650Z,20.74
2019-05-13T07:53:04.727Z,20.77
2019-05-13T07:55:36.151Z,20.99
2019-05-13T07:58:06.911Z,20.92
2019-05-13T08:00:38.127Z,20.89
2019-05-13T08:03:12.038Z,21.03
2019-05-13T08:05:42.861Z,21.18
2019-05-13T08:08:13.692Z,21.39
2019-05-13T08:10:45.196Z,21.43
2019-05-13T08:13:22.467Z,21.53
2019-05-13T08:15:55.071Z,21.57
2019-05-13T08:18:26.757Z,21.80
2019-05-13T08:20:57.598Z,21.72
2019-05-13T08:23:28.786Z,21.56
2019-05-13T08:26:01.975Z,21.50
2019-05-13T08:28:32.664Z,21.41
2019-05-13T08:31:04.564Z,21.59
2019-05-13T08:33:36.097Z,21.58
2019-05-13T08:36:07.701Z,21.67
2019-05-13T08:38:39.598Z,21.68
2019-05-13T08:41:18.826Z,21.83
2019-05-13T08:43:45.339Z,21.99
2019-05-13T08:46:16.195Z,22.06
2019-05-13T08:48:47.344Z,21.84
2019-05-13T08:51:18.001Z,21.85
2019-05-13T08:53:51.620Z,21.65
2019-05-13T09:54:37.533Z,22.15
2019-05-13T09:57:14.374Z,22.07
2019-05-13T09:59:45.128Z,22.00
2019-05-13T10:02:16.169Z,21.77
2019-05-13T10:04:47.547Z,21.91
2019-05-13T10:07:18.241Z,21.98
2019-05-13T10:09:51.810Z,21.90
2019-05-13T10:12:24.402Z,21.97
2019-05-13T10:14:55.657Z,22.05
2019-05-13T10:17:26.417Z,22.12
2019-05-13T10:20:12.154Z,22.13
2019-05-13T10:22:43.556Z,22.28
2019-05-13T10:25:16.122Z,22.28
2019-05-13T10:27:47.167Z,22.21
2019-05-13T10:30:18.550Z,22.29
2019-05-13T10:32:52.531Z,22.47
2019-05-13T10:35:23.192Z,22.68
2019-05-13T10:37:54.318Z,22.81
2019-05-13T10:40:25.538Z,22.90
2019-05-13T10:42:56.918Z,23.08
2019-05-13T10:45:27.695Z,22.90
2019-05-13T10:47:58.784Z,22.95
2019-05-13T10:52:59.483Z,22.70
2019-05-13T10:55:32.477Z,22.61
2019-05-13T10:58:07.316Z,22.60
2019-05-13T11:00:51.722Z,22.80
2019-05-13T11:03:24.537Z,22.99
2019-05-13T11:05:55.343Z,22.99
2019-05-13T11:08:26.442Z,22.84
2019-05-13T11:10:57.149Z,22.88
2019-05-13T11:13:45.794Z,22.72
2019-05-13T11:16:02.341Z,22.73
2019-05-13T11:18:34.022Z,22.81
2019-05-13T11:21:04.935Z,22.74
2019-05-13T11:23:36.118Z,22.52
2019-05-13T11:26:06.814Z,22.59
2019-05-13T11:28:38.204Z,22.52
2019-05-13T11:31:08.953Z,22.60
2019-05-13T11:33:42.226Z,22.75
2019-05-13T11:36:18.877Z,22.84
2019-05-13T11:38:46.407Z,22.98
2019-05-13T11:41:17.865Z,23.04
2019-05-13T11:44:09.201Z,23.04
2019-05-13T11:46:22.740Z,23.26
2019-05-13T11:48:54.179Z,23.35
2019-05-13T11:51:25.690Z,23.24
2019-05-13T11:54:02.389Z,23.08
2019-05-13T11:56:33.975Z,22.64
2019-05-13T11:59:05.228Z,22.51
2019-05-13T12:01:36.769Z,22.48
2019-05-13T12:04:12.814Z,22.33
2019-05-13T12:06:49.035Z,22.04
2019-05-13T12:09:22.013Z,21.85
2019-05-13T12:11:54.281Z,21.74
2019-05-13T12:14:47.103Z,21.67
2019-05-13T12:17:05.384Z,21.30
2019-05-13T12:19:36.134Z,21.33
2019-05-13T12:22:07.459Z,21.32
2019-05-13T12:24:42.213Z,21.31
2019-05-13T12:27:12.740Z,21.53
2019-05-13T12:29:44.504Z,21.70
2019-05-13T12:32:15.802Z,21.80
2019-05-13T12:34:47.186Z,21.83
2019-05-13T12:37:17.897Z,21.89
2019-05-13T12:39:49.642Z,22.09
2019-05-13T12:42:22.832Z,22.34
2019-05-13T12:45:09.322Z,22.48
2019-05-13T12:47:33.530Z,22.53
2019-05-13T12:50:06.532Z,22.50
2019-05-13T12:52:39.369Z,22.46
2019-05-13T12:55:13.791Z,22.58
2019-05-13T12:57:43.158Z,22.58
2019-05-13T13:00:13.720Z,22.83
2019-05-13T13:02:50.411Z,22.83
2019-05-13T13:05:20.641Z,23.03
2019-05-13T13:08:13.474Z,23.15
2019-05-13T13:10:25.481Z,23.20
2019-05-13T13:12:56.345Z,23.26
2019-05-13T13:15:48.644Z,23.08
2019-05-13T13:18:22.187Z,23.12
2019-05-13T13:21:00.310Z,23.01
2019-05-13T13:23:27.579Z,23.02
2019-05-13T13:28:35.195Z,23.01
2019-05-13T13:31:08.225Z,22.91
2019-05-13T13:33:39.620Z,23.09
2019-05-13T13:36:15.847Z,23.08
2019-05-13T13:38:45.598Z,23.28
2019-05-13T13:41:22.659Z,23.32
2019-05-13T13:43:53.764Z,23.29
2019-05-13T13:49:00.037Z,23.28
2019-05-13T13:51:34.484Z,23.38
2019-05-13T13:54:12.528Z,23.28
2019-05-13T13:56:47.035Z,23.51
2019-05-13T13:59:24.571Z,23.38
2019-05-13T14:01:58.041Z,23.30
2019-05-13T14:04:29.659Z,23.49
2019-05-13T14:06:55.936Z,22.93
2019-05-13T14:07:11.710Z,23.38
2019-05-13T14:07:28.052Z,23.53
2019-05-13T14:09:37.587Z,23.63
2019-05-13T14:12:11.209Z,23.61
2019-05-13T14:14:43.811Z,23.44
2019-05-13T14:17:17.823Z,23.44
2019-05-13T14:19:52.360Z,23.46
2019-05-13T14:22:26.842Z,23.34
2019-05-13T14:24:58.295Z,23.14
2019-05-13T14:27:31.487Z,22.95
2019-05-13T14:30:03.736Z,22.92
2019-05-13T14:32:35.277Z,22.75
2019-05-13T14:35:12.142Z,22.75
2019-05-13T14:37:43.015Z,22.54
2019-05-13T14:40:14.281Z,22.15
2019-05-13T14:42:45.579Z,22.16
2019-05-13T14:45:16.344Z,22.25
2019-05-13T14:47:49.070Z,22.08
2019-05-13T14:50:21.418Z,22.16
2019-05-13T14:52:52.677Z,22.03
2019-05-13T14:55:23.447Z,22.00
2019-05-13T14:57:54.603Z,21.67
2019-05-13T15:00:25.389Z,21.58
2019-05-13T15:02:56.512Z,21.49
2019-05-13T15:05:31.165Z,21.61
2019-05-13T15:08:02.141Z,21.56
2019-05-13T15:10:33.754Z,21.66
2019-05-13T15:13:05.407Z,21.61
2019-05-13T15:15:36.221Z,21.70
2019-05-13T15:18:07.450Z,21.59
2019-05-13T15:20:38.937Z,21.55
2019-05-13T15:23:11.847Z,21.48
2019-05-13T15:25:42.474Z,21.31
2019-05-13T15:28:13.273Z,21.20
2019-05-13T15:30:44.438Z,21.02
2019-05-13T15:33:15.180Z,21.12
2019-05-13T15:35:46.352Z,20.91
2019-05-13T15:38:17.837Z,20.99
2019-05-13T15:40:49.091Z,20.97
2019-05-13T15:43:22.246Z,20.88
2019-05-13T15:45:52.619Z,20.77
2019-05-13T15:48:24.208Z,20.87
2019-05-13T15:50:55.050Z,20.88
2019-05-13T15:53:26.169Z,20.56
2019-05-13T15:55:57.054Z,20.72
2019-05-13T15:58:39.034Z,20.59
2019-05-13T16:01:02.887Z,20.66
2019-05-13T16:03:34.571Z,20.59
2019-05-13T16:06:06.120Z,20.56
2019-05-13T16:08:37.532Z,20.42
2019-05-13T16:11:08.207Z,20.23
2019-05-13T16:13:39.375Z,20.13
2019-05-13T16:16:12.163Z,20.11
2019-05-13T16:18:43.018Z,19.95
2019-05-13T16:21:13.730Z,19.90
2019-05-13T16:23:45.031Z,19.65
2019-05-13T16:26:18.016Z,19.79
2019-05-13T16:28:48.880Z,19.75
2019-05-13T16:31:20.037Z,19.57
2019-05-13T16:33:52.275Z,19.65
2019-05-13T16:36:23.749Z,19.58
2019-05-13T16:38:55.256Z,19.58
2019-05-13T16:41:26.094Z,19.59
2019-05-13T16:43:57.201Z,19.42
2019-05-13T16:46:28.554Z,19.58
2019-05-13T16:49:01.381Z,19.59
2019-05-13T16:51:32.806Z,19.62
2019-05-13T16:54:04.234Z,19.67
2019-05-13T16:56:34.836Z,19.76
2019-05-13T16:59:06.750Z,19.71
2019-05-13T17:01:38.072Z,19.68
2019-05-13T17:04:09.444Z,19.59
2019-05-13T17:06:41.650Z,19.55
2019-05-13T17:09:13.462Z,19.41
2019-05-13T17:11:44.228Z,19.38
2019-05-13T17:14:15.356Z,19.05
2019-05-13T17:16:46.129Z,19.20
2019-05-13T17:19:17.327Z,19.17
2019-05-13T17:21:51.804Z,19.19
2019-05-13T17:24:22.550Z,19.09
2019-05-13T17:26:55.457Z,18.92
2019-05-13T17:29:26.347Z,18.78
2019-05-13T17:31:57.481Z,18.58
2019-05-13T17:34:28.805Z,18.59
2019-05-13T17:37:03.509Z,18.62
2019-05-13T17:39:34.972Z,18.57
2019-05-13T17:42:07.618Z,18.54
2019-05-13T17:44:45.888Z,18.47
2019-05-13T17:47:13.133Z,18.43
2019-05-13T17:49:44.138Z,18.47
2019-05-13T17:52:17.202Z,18.24
2019-05-13T17:54:48.503Z,18.40
2019-05-13T17:57:21.683Z,18.44
2019-05-13T17:59:54.408Z,18.35
2019-05-13T18:02:26.446Z,18.34
2019-05-13T18:05:01.826Z,18.22
2019-05-13T18:07:33.172Z,18.35
2019-05-13T18:10:11.915Z,18.46
2019-05-13T18:12:42.712Z,18.51
2019-05-13T18:15:15.804Z,18.56
2019-05-13T18:17:47.539Z,18.54
2019-05-13T18:20:21.769Z,18.49
2019-05-13T18:22:57.888Z,18.50
2019-05-13T18:25:31.741Z,18.38
2019-05-13T18:28:02.735Z,18.41
2019-05-13T18:30:35.226Z,18.42
2019-05-13T18:33:11.773Z,18.33
2019-05-13T18:35:43.566Z,18.47
2019-05-13T18:38:15.214Z,18.37
2019-05-13T18:40:46.897Z,18.33
2019-05-13T18:43:21.542Z,18.34
2019-05-13T18:46:02.550Z,18.43
2019-05-13T18:48:38.253Z,18.52
2019-05-13T18:51:11.922Z,18.59
2019-05-13T18:53:43.264Z,18.50
2019-05-13T18:56:14.118Z,18.47
2019-05-13T18:59:13.434Z,18.32
2019-05-13T19:01:54.121Z,18.43
2019-05-13T19:04:28.029Z,18.42
2019-05-13T19:07:08.376Z,18.46
2019-05-13T19:09:41.717Z,18.52
2019-05-13T19:12:14.444Z,18.43
2019-05-13T19:14:51.526Z,18.42
2019-05-13T19:17:27.032Z,18.40
2019-05-13T19:19:59.132Z,18.35
2019-05-13T19:22:31.770Z,18.39
2019-05-13T19:25:06.413Z,18.39
2019-05-13T19:27:41.328Z,18.37
2019-05-13T19:30:13.068Z,18.45
2019-05-13T19:32:46.031Z,18.53
2019-05-13T19:35:17.501Z,18.55
2019-05-13T19:37:51.701Z,18.59
2019-05-13T19:40:31.783Z,18.44
2019-05-13T19:43:11.705Z,18.47
2019-05-13T19:45:53.711Z,18.43
2019-05-13T19:48:32.726Z,18.41
2019-05-13T19:51:05.889Z,18.43
2019-05-13T19:53:41.193Z,18.39
2019-05-13T19:56:13.053Z,18.29
2019-05-13T19:58:46.288Z,18.31
2019-05-13T20:01:32.183Z,18.27
2019-05-13T20:04:11.939Z,18.22
2019-05-13T20:06:48.459Z,18.04
2019-05-13T20:09:23.099Z,17.99
2019-05-13T20:12:04.003Z,18.00
2019-05-13T20:14:35.701Z,18.03
2019-05-13T20:17:07.852Z,18.12
2019-05-13T20:19:50.111Z,18.11
2019-05-13T20:22:17.031Z,18.12
2019-05-13T20:25:06.340Z,18.14
2019-05-13T20:27:39.503Z,18.06
2019-05-13T20:30:15.763Z,17.99
2019-05-13T20:32:51.515Z,18.03
2019-05-13T20:38:47.837Z,17.95
2019-05-13T20:41:33.884Z,17.80
2019-05-13T20:48:41.108Z,17.73
2019-05-13T21:07:32.531Z,17.25
2019-05-13T21:10:31.997Z,17.22
2019-05-13T21:56:52.185Z,16.66
2019-05-13T22:09:51.295Z,16.24
2019-05-13T22:20:03.848Z,16.33
2019-05-13T22:26:31.967Z,16.31
2019-05-13T22:29:28.608Z,16.22
2019-05-13T22:32:53.126Z,16.30
2019-05-13T22:35:41.912Z,16.25
2019-05-13T22:39:32.292Z,16.33
2019-05-13T22:42:13.257Z,16.30
2019-05-13T22:46:32.231Z,16.19
2019-05-13T22:48:08.911Z,16.22
2019-05-13T22:51:01.171Z,16.13
2019-05-13T22:54:27.842Z,16.09
2019-05-13T22:57:11.998Z,16.06
2019-05-13T23:00:25.246Z,16.02
2019-05-13T23:07:02.771Z,16.10
2019-05-13T23:10:06.595Z,16.01
2019-05-13T23:12:57.265Z,16.06
2019-05-13T23:15:44.800Z,15.98
2019-05-13T23:18:38.313Z,15.89
2019-05-13T23:21:27.583Z,15.74
2019-05-13T23:27:26.980Z,15.88
2019-05-13T23:30:11.686Z,15.79
2019-05-13T23:32:51.880Z,15.73
2019-05-13T23:35:55.893Z,15.70
2019-05-13T23:38:35.982Z,15.70
2019-05-13T23:41:11.785Z,15.72
2019-05-13T23:43:48.402Z,15.66
2019-05-13T23:46:28.724Z,15.71
2019-05-13T23:52:16.546Z,15.80
